createdAt,value
2022-11-13T00:00:57.911Z,0.80
2022-11-13T00:06:01.661Z,0.70
2022-11-13T00:11:06.968Z,0.60
2022-11-13T00:16:15.747Z,0.60
2022-11-13T00:21:21.199Z,0.60
2022-11-13T00:26:26.542Z,0.65
2022-11-13T00:31:31.452Z,0.68
2022-11-13T00:36:34.762Z,0.60
2022-11-13T00:41:38.316Z,0.63
2022-11-13T00:46:43.312Z,0.60
2022-11-13T00:51:46.545Z,0.60
2022-11-13T00:56:49.921Z,0.63
2022-11-13T01:01:54.713Z,0.50
2022-11-13T01:06:58.209Z,0.70
2022-11-13T01:12:01.568Z,0.95
2022-11-13T01:17:06.516Z,0.60
2022-11-13T01:22:10.169Z,0.60
2022-11-13T01:27:15.800Z,0.60
2022-11-13T01:32:20.809Z,0.90
2022-11-13T01:37:24.617Z,0.80
2022-11-13T01:42:28.079Z,0.60
2022-11-13T01:47:33.089Z,0.70
2022-11-13T01:52:40.192Z,0.50
2022-11-13T01:57:43.586Z,0.60
2022-11-13T02:02:48.454Z,0.60
2022-11-13T02:07:52.104Z,0.80
2022-11-13T02:12:55.592Z,0.75
2022-11-13T02:18:02.328Z,0.80
2022-11-13T02:23:15.988Z,0.60
2022-11-13T02:28:20.731Z,0.75
2022-11-13T02:38:28.955Z,0.60
2022-11-13T02:43:33.941Z,0.70
2022-11-13T02:53:40.334Z,0.75
2022-11-13T02:58:45.105Z,1.13
2022-11-13T03:09:01.664Z,0.60
2022-11-13T03:14:06.400Z,0.63
2022-11-13T03:19:10.200Z,0.50
2022-11-13T03:24:13.573Z,0.70
2022-11-13T03:29:18.328Z,0.60
2022-11-13T03:39:24.901Z,0.57
2022-11-13T03:44:29.643Z,0.70
2022-11-13T03:49:33.049Z,0.60
2022-11-13T03:54:36.331Z,0.70
2022-11-13T03:59:41.202Z,0.60
2022-11-13T04:04:44.875Z,0.90
2022-11-13T04:09:48.260Z,0.60
2022-11-13T04:14:53.161Z,0.75
2022-11-13T04:19:56.436Z,0.90
2022-11-13T04:24:59.832Z,0.60
2022-11-13T04:30:05.667Z,0.60
2022-11-13T04:35:09.992Z,0.60
2022-11-13T04:40:13.686Z,0.70
2022-11-13T04:45:19.628Z,1.13
2022-11-13T04:50:23.490Z,0.50
2022-11-13T04:55:27.017Z,0.80
2022-11-13T05:00:31.693Z,0.70
2022-11-13T05:05:34.908Z,0.88
2022-11-13T05:10:38.588Z,0.80
2022-11-13T05:15:43.414Z,0.70
2022-11-13T05:25:49.667Z,0.77
2022-11-13T05:30:54.724Z,0.60
2022-11-13T05:36:02.664Z,0.85
2022-11-13T05:41:07.894Z,0.70
2022-11-13T05:46:14.729Z,0.80
2022-11-13T05:51:19.858Z,0.52
2022-11-13T05:56:24.973Z,0.68
2022-11-13T06:01:32.443Z,0.70
2022-11-13T06:06:36.320Z,1.02
2022-11-13T06:11:39.608Z,0.80
2022-11-13T06:16:44.301Z,0.68
2022-11-13T06:21:47.904Z,0.65
2022-11-13T06:26:51.376Z,0.70
2022-11-13T06:31:56.144Z,0.70
2022-11-13T06:42:05.491Z,0.70
2022-11-13T06:47:10.349Z,0.52
2022-11-13T06:52:13.998Z,0.70
2022-11-13T06:57:17.411Z,1.00
2022-11-13T07:02:22.010Z,0.60
2022-11-13T07:12:30.060Z,0.80
2022-11-13T07:17:35.010Z,0.80
2022-11-13T07:22:38.397Z,0.80
2022-11-13T07:27:46.304Z,0.63
2022-11-13T07:32:51.044Z,0.70
2022-11-13T07:37:57.103Z,0.80
2022-11-13T07:43:01.276Z,0.73
2022-11-13T07:53:11.265Z,1.20
2022-11-13T07:58:15.114Z,0.90
2022-11-13T08:03:19.941Z,0.90
2022-11-13T08:08:23.512Z,1.00
2022-11-13T08:13:26.891Z,0.93
2022-11-13T08:18:32.923Z,1.20
2022-11-13T08:23:36.202Z,0.70
2022-11-13T08:28:39.729Z,0.70
2022-11-13T08:33:44.992Z,0.90
2022-11-13T08:38:50.049Z,0.73
2022-11-13T08:43:53.337Z,0.70
2022-11-13T08:48:57.989Z,0.70
2022-11-13T08:59:04.539Z,0.73
2022-11-13T09:04:09.357Z,0.70
2022-11-13T09:09:12.842Z,0.60
2022-11-13T09:19:22.863Z,0.60
2022-11-13T09:24:26.228Z,0.60
2022-11-13T09:29:29.768Z,0.80
2022-11-13T09:34:34.665Z,0.55
2022-11-13T09:39:38.209Z,0.60
2022-11-13T09:44:46.418Z,0.70
2022-11-13T09:49:56.367Z,0.60
2022-11-13T09:55:00.050Z,0.50
2022-11-13T10:00:06.704Z,0.55
2022-11-13T10:05:16.158Z,0.60
2022-11-13T10:10:37.994Z,0.60
2022-11-13T10:15:44.805Z,0.50
2022-11-13T10:20:54.427Z,0.60
2022-11-13T10:26:01.659Z,0.60
2022-11-13T10:31:05.028Z,0.60
2022-11-13T10:36:22.456Z,0.45
2022-11-13T10:41:25.806Z,0.60
2022-11-13T10:46:31.334Z,0.70
2022-11-13T10:51:36.719Z,0.70
2022-11-13T10:56:40.330Z,0.60
2022-11-13T11:01:45.948Z,0.70
2022-11-13T11:07:19.669Z,0.50
2022-11-13T11:12:19.087Z,0.80
2022-11-13T11:17:25.764Z,0.60
2022-11-13T11:22:34.598Z,0.50
2022-11-13T11:27:42.739Z,0.43
2022-11-13T11:32:51.499Z,0.70
2022-11-13T11:38:04.574Z,0.70
2022-11-13T11:43:18.847Z,0.70
2022-11-13T11:48:27.597Z,0.57
2022-11-13T11:53:39.765Z,0.70
2022-11-13T11:59:02.799Z,0.50
2022-11-13T12:04:16.454Z,0.60
2022-11-13T12:09:27.974Z,0.57
2022-11-13T12:14:45.131Z,0.60
2022-11-13T12:19:55.670Z,0.60
2022-11-13T12:25:15.400Z,0.57
2022-11-13T12:30:22.527Z,0.60
2022-11-13T12:35:28.193Z,0.60
2022-11-13T12:40:44.008Z,0.60
2022-11-13T12:45:52.757Z,0.50
2022-11-13T12:51:01.606Z,0.60
2022-11-13T12:56:07.059Z,0.43
2022-11-13T13:01:18.842Z,0.60
2022-11-13T13:06:39.905Z,0.65
2022-11-13T13:11:55.140Z,0.55
2022-11-13T13:17:07.157Z,0.70
2022-11-13T13:22:11.750Z,0.70
2022-11-13T13:27:27.699Z,0.80
2022-11-13T13:32:44.207Z,0.70
2022-11-13T13:37:57.684Z,0.60
2022-11-13T13:43:24.772Z,0.80
2022-11-13T13:48:32.067Z,0.50
2022-11-13T13:53:37.624Z,0.70
2022-11-13T13:58:42.541Z,0.60
2022-11-13T14:08:49.747Z,0.50
2022-11-13T14:13:54.565Z,0.73
2022-11-13T14:19:05.193Z,0.77
2022-11-13T14:24:15.451Z,0.68
2022-11-13T14:29:36.660Z,0.60
2022-11-13T14:34:44.207Z,0.60
2022-11-13T14:39:49.955Z,0.68
2022-11-13T14:44:54.728Z,0.80
2022-11-13T14:50:20.177Z,1.15
2022-11-13T14:55:25.682Z,0.80
2022-11-13T15:00:33.301Z,0.80
2022-11-13T15:05:36.698Z,0.80
2022-11-13T15:10:40.096Z,0.93
2022-11-13T15:15:46.566Z,1.05
2022-11-13T15:20:50.334Z,1.00
2022-11-13T15:25:53.614Z,1.20
2022-11-13T15:30:58.972Z,1.08
2022-11-13T15:36:02.583Z,1.20
2022-11-13T15:41:13.369Z,1.20
2022-11-13T15:46:22.132Z,1.10
2022-11-13T15:51:35.272Z,1.08
2022-11-13T15:56:38.833Z,0.70
2022-11-13T16:01:43.989Z,1.08
2022-11-13T16:06:47.565Z,1.00
2022-11-13T16:11:53.274Z,1.00
2022-11-13T16:16:58.145Z,1.20
2022-11-13T16:27:05.115Z,0.95
2022-11-13T16:32:15.844Z,1.10
2022-11-13T16:37:20.958Z,1.20
2022-11-13T16:42:29.787Z,1.00
2022-11-13T16:47:35.595Z,1.20
2022-11-13T16:57:43.245Z,1.00
2022-11-13T17:02:51.059Z,0.80
2022-11-13T17:07:58.893Z,1.00
2022-11-13T17:13:02.447Z,1.20
2022-11-13T17:18:07.517Z,1.10
2022-11-13T17:23:15.770Z,0.80
2022-11-13T17:28:19.322Z,0.88
2022-11-13T17:33:23.981Z,0.85
2022-11-13T17:38:27.720Z,0.85
2022-11-13T17:43:31.459Z,1.00
2022-11-13T17:48:37.370Z,1.00
2022-11-13T17:53:40.757Z,1.02
2022-11-13T17:58:45.982Z,1.75
2022-11-13T18:03:56.023Z,1.27
2022-11-13T18:08:59.298Z,1.20
2022-11-13T18:14:03.006Z,1.40
2022-11-13T18:19:09.681Z,1.45
2022-11-13T18:24:17.860Z,1.42
2022-11-13T18:29:22.094Z,1.00
2022-11-13T18:34:28.566Z,1.73
2022-11-13T18:39:32.045Z,1.08
2022-11-13T18:44:35.746Z,1.02
2022-11-13T18:49:40.464Z,1.27
2022-11-13T18:54:43.715Z,1.15
2022-11-13T18:59:47.238Z,1.33
2022-11-13T19:04:52.051Z,1.90
2022-11-13T19:15:00.567Z,1.77
2022-11-13T19:20:06.214Z,1.55
2022-11-13T19:25:10.064Z,2.00
2022-11-13T19:30:14.115Z,1.50
2022-11-13T19:35:18.943Z,1.73
2022-11-13T19:45:25.490Z,1.70
2022-11-13T19:50:30.158Z,1.23
2022-11-13T19:55:35.005Z,1.70
2022-11-13T20:05:43.392Z,1.42
2022-11-13T20:10:46.741Z,1.20
2022-11-13T20:15:54.790Z,1.60
2022-11-13T20:21:00.033Z,1.60
2022-11-13T20:26:06.810Z,1.70
2022-11-13T20:31:19.942Z,1.45
2022-11-13T20:36:25.422Z,1.98
2022-11-13T20:41:28.795Z,1.40
2022-11-13T20:46:32.648Z,1.25
2022-11-13T20:51:37.308Z,1.30
2022-11-13T20:56:40.743Z,1.60
2022-11-13T21:01:44.286Z,1.40
2022-11-13T21:06:49.231Z,1.30
2022-11-13T21:11:52.690Z,0.80
2022-11-13T21:16:56.305Z,1.10
2022-11-13T21:22:01.346Z,0.90
2022-11-13T21:27:04.709Z,1.02
2022-11-13T21:32:08.264Z,1.10
2022-11-13T21:37:14.596Z,1.00
2022-11-13T21:42:18.027Z,0.73
2022-11-13T21:47:21.522Z,0.60
2022-11-13T21:52:26.177Z,0.88
2022-11-13T22:02:32.863Z,0.80
2022-11-13T22:07:37.546Z,1.05
2022-11-13T22:12:40.937Z,0.77
2022-11-13T22:17:44.197Z,0.63
2022-11-13T22:22:48.966Z,0.65
2022-11-13T22:27:52.414Z,0.77
2022-11-13T22:32:55.753Z,0.70
2022-11-13T22:38:00.800Z,0.70
2022-11-13T22:43:04.158Z,0.60
2022-11-13T22:48:07.566Z,0.50
2022-11-13T22:53:14.868Z,0.60
2022-11-13T22:58:18.511Z,0.70
2022-11-13T23:03:21.918Z,0.60
2022-11-13T23:08:27.128Z,0.70
2022-11-13T23:13:30.584Z,0.65
2022-11-13T23:18:34.439Z,0.63
2022-11-13T23:23:39.190Z,0.80
2022-11-13T23:33:46.161Z,0.73
2022-11-13T23:38:51.421Z,0.60
2022-11-13T23:44:08.251Z,0.73
2022-11-13T23:49:12.850Z,0.98
2022-11-13T23:54:17.657Z,0.80
